sensor_id;sensor_type;location;lat;lon;timestamp;P1;durP1;ratioP1;P2;durP2;ratioP2
35907;SDS011;22003;50.320;8.054;2024-02-21T00:00:35;15.90;;;7.68;;
35907;SDS011;22003;50.320;8.054;2024-02-21T00:03:03;21.15;;;6.50;;
35907;SDS011;22003;50.320;8.054;2024-02-21T00:05:29;19.20;;;7.57;;
35907;SDS011;22003;50.320;8.054;2024-02-21T00:07:54;18.33;;;7.53;;
35907;SDS011;22003;50.320;8.054;2024-02-21T00:10:19;16.83;;;7.18;;
35907;SDS011;22003;50.320;8.054;2024-02-21T00:12:45;20.65;;;7.50;;
35907;SDS011;22003;50.320;8.054;2024-02-21T00:15:11;14.88;;;7.07;;
35907;SDS011;22003;50.320;8.054;2024-02-21T00:17:36;21.25;;;7.57;;
35907;SDS011;22003;50.320;8.054;2024-02-21T00:20:02;22.10;;;7.80;;
35907;SDS011;22003;50.320;8.054;2024-02-21T00:22:27;15.57;;;6.32;;
35907;SDS011;22003;50.320;8.054;2024-02-21T00:24:58;14.50;;;7.15;;
35907;SDS011;22003;50.320;8.054;2024-02-21T00:27:23;17.17;;;7.38;;
35907;SDS011;22003;50.320;8.054;2024-02-21T00:29:48;19.50;;;7.30;;
35907;SDS011;22003;50.320;8.054;2024-02-21T00:32:14;18.02;;;7.35;;
35907;SDS011;22003;50.320;8.054;2024-02-21T00:34:39;20.92;;;6.85;;
35907;SDS011;22003;50.320;8.054;2024-02-21T00:37:04;15.23;;;6.50;;
35907;SDS011;22003;50.320;8.054;2024-02-21T00:39:30;17.58;;;6.68;;
35907;SDS011;22003;50.320;8.054;2024-02-21T00:41:56;15.35;;;6.90;;
35907;SDS011;22003;50.320;8.054;2024-02-21T00:44:21;19.25;;;6.22;;
35907;SDS011;22003;50.320;8.054;2024-02-21T00:46:46;18.00;;;6.88;;
35907;SDS011;22003;50.320;8.054;2024-02-21T00:49:12;22.00;;;7.65;;
35907;SDS011;22003;50.320;8.054;2024-02-21T00:51:37;13.75;;;6.55;;
35907;SDS011;22003;50.320;8.054;2024-02-21T00:54:03;23.35;;;7.72;;
35907;SDS011;22003;50.320;8.054;2024-02-21T00:56:28;16.85;;;6.72;;
35907;SDS011;22003;50.320;8.054;2024-02-21T00:58:54;14.68;;;6.00;;
35907;SDS011;22003;50.320;8.054;2024-02-21T01:01:26;15.40;;;6.35;;
35907;SDS011;22003;50.320;8.054;2024-02-21T01:03:51;18.05;;;7.03;;
35907;SDS011;22003;50.320;8.054;2024-02-21T01:06:20;20.33;;;6.53;;
35907;SDS011;22003;50.320;8.054;2024-02-21T01:08:48;13.00;;;6.18;;
35907;SDS011;22003;50.320;8.054;2024-02-21T01:11:14;20.80;;;6.70;;
35907;SDS011;22003;50.320;8.054;2024-02-21T01:13:40;13.52;;;6.07;;
35907;SDS011;22003;50.320;8.054;2024-02-21T01:16:05;20.65;;;6.80;;
35907;SDS011;22003;50.320;8.054;2024-02-21T01:18:32;15.02;;;7.00;;
35907;SDS011;22003;50.320;8.054;2024-02-21T01:20:57;17.25;;;6.75;;
35907;SDS011;22003;50.320;8.054;2024-02-21T01:23:22;20.15;;;6.57;;
35907;SDS011;22003;50.320;8.054;2024-02-21T01:25:48;20.67;;;6.15;;
35907;SDS011;22003;50.320;8.054;2024-02-21T01:28:13;17.05;;;6.55;;
35907;SDS011;22003;50.320;8.054;2024-02-21T01:30:38;13.32;;;5.82;;
35907;SDS011;22003;50.320;8.054;2024-02-21T01:33:04;20.17;;;7.63;;
35907;SDS011;22003;50.320;8.054;2024-02-21T01:35:29;15.85;;;6.22;;
35907;SDS011;22003;50.320;8.054;2024-02-21T01:37:54;14.90;;;6.47;;
35907;SDS011;22003;50.320;8.054;2024-02-21T01:40:19;20.50;;;6.43;;
35907;SDS011;22003;50.320;8.054;2024-02-21T01:42:44;15.98;;;5.65;;
35907;SDS011;22003;50.320;8.054;2024-02-21T01:45:10;15.95;;;5.85;;
35907;SDS011;22003;50.320;8.054;2024-02-21T01:47:36;22.75;;;6.50;;
35907;SDS011;22003;50.320;8.054;2024-02-21T01:50:02;15.27;;;5.70;;
35907;SDS011;22003;50.320;8.054;2024-02-21T01:52:28;15.35;;;6.13;;
35907;SDS011;22003;50.320;8.054;2024-02-21T01:54:55;17.63;;;6.57;;
35907;SDS011;22003;50.320;8.054;2024-02-21T01:57:22;14.23;;;5.45;;
35907;SDS011;22003;50.320;8.054;2024-02-21T01:59:47;16.52;;;6.28;;
35907;SDS011;22003;50.320;8.054;2024-02-21T02:02:13;15.32;;;6.10;;
35907;SDS011;22003;50.320;8.054;2024-02-21T02:04:38;13.80;;;5.45;;
35907;SDS011;22003;50.320;8.054;2024-02-21T02:07:04;13.30;;;6.57;;
35907;SDS011;22003;50.320;8.054;2024-02-21T02:09:31;13.60;;;5.72;;
35907;SDS011;22003;50.320;8.054;2024-02-21T02:11:57;14.85;;;7.00;;
35907;SDS011;22003;50.320;8.054;2024-02-21T02:14:23;16.92;;;5.82;;
35907;SDS011;22003;50.320;8.054;2024-02-21T02:16:48;13.77;;;6.03;;
35907;SDS011;22003;50.320;8.054;2024-02-21T02:19:14;13.75;;;6.05;;
35907;SDS011;22003;50.320;8.054;2024-02-21T02:21:41;12.60;;;5.20;;
35907;SDS011;22003;50.320;8.054;2024-02-21T02:24:11;13.13;;;5.90;;
35907;SDS011;22003;50.320;8.054;2024-02-21T02:26:38;14.32;;;5.47;;
35907;SDS011;22003;50.320;8.054;2024-02-21T02:29:03;13.77;;;5.95;;
35907;SDS011;22003;50.320;8.054;2024-02-21T02:31:29;18.50;;;5.68;;
35907;SDS011;22003;50.320;8.054;2024-02-21T02:33:54;14.70;;;6.57;;
35907;SDS011;22003;50.320;8.054;2024-02-21T02:36:19;17.42;;;6.38;;
35907;SDS011;22003;50.320;8.054;2024-02-21T02:38:45;14.23;;;5.60;;
35907;SDS011;22003;50.320;8.054;2024-02-21T02:41:10;14.40;;;5.65;;
35907;SDS011;22003;50.320;8.054;2024-02-21T02:43:35;16.30;;;5.60;;
35907;SDS011;22003;50.320;8.054;2024-02-21T02:46:01;16.02;;;5.80;;
35907;SDS011;22003;50.320;8.054;2024-02-21T02:48:27;17.75;;;5.50;;
35907;SDS011;22003;50.320;8.054;2024-02-21T02:50:52;13.27;;;5.57;;
35907;SDS011;22003;50.320;8.054;2024-02-21T02:53:17;14.45;;;5.72;;
35907;SDS011;22003;50.320;8.054;2024-02-21T02:55:43;16.70;;;6.32;;
35907;SDS011;22003;50.320;8.054;2024-02-21T02:58:08;15.50;;;5.18;;
35907;SDS011;22003;50.320;8.054;2024-02-21T03:00:33;18.20;;;6.10;;
35907;SDS011;22003;50.320;8.054;2024-02-21T03:03:01;12.88;;;4.90;;
35907;SDS011;22003;50.320;8.054;2024-02-21T03:07:54;19.43;;;5.83;;
35907;SDS011;22003;50.320;8.054;2024-02-21T03:10:19;15.25;;;5.25;;
35907;SDS011;22003;50.320;8.054;2024-02-21T03:12:44;16.98;;;5.65;;
35907;SDS011;22003;50.320;8.054;2024-02-21T03:15:09;17.80;;;6.57;;
35907;SDS011;22003;50.320;8.054;2024-02-21T03:17:35;12.70;;;5.22;;
35907;SDS011;22003;50.320;8.054;2024-02-21T03:20:01;14.90;;;5.90;;
35907;SDS011;22003;50.320;8.054;2024-02-21T03:22:30;16.25;;;5.88;;
35907;SDS011;22003;50.320;8.054;2024-02-21T03:24:55;11.38;;;6.20;;
35907;SDS011;22003;50.320;8.054;2024-02-21T03:27:20;21.17;;;5.78;;
35907;SDS011;22003;50.320;8.054;2024-02-21T03:29:46;18.48;;;6.32;;
35907;SDS011;22003;50.320;8.054;2024-02-21T03:32:11;17.90;;;6.80;;
35907;SDS011;22003;50.320;8.054;2024-02-21T03:34:36;15.32;;;5.82;;
35907;SDS011;22003;50.320;8.054;2024-02-21T03:37:01;13.23;;;5.30;;
35907;SDS011;22003;50.320;8.054;2024-02-21T03:39:27;18.60;;;5.75;;
35907;SDS011;22003;50.320;8.054;2024-02-21T03:41:56;22.63;;;5.32;;
35907;SDS011;22003;50.320;8.054;2024-02-21T03:44:22;15.88;;;5.65;;
35907;SDS011;22003;50.320;8.054;2024-02-21T03:46:48;12.88;;;4.93;;
35907;SDS011;22003;50.320;8.054;2024-02-21T03:49:13;13.63;;;5.57;;
35907;SDS011;22003;50.320;8.054;2024-02-21T03:51:41;16.50;;;5.25;;
35907;SDS011;22003;50.320;8.054;2024-02-21T03:54:06;12.57;;;5.53;;
35907;SDS011;22003;50.320;8.054;2024-02-21T03:56:31;11.85;;;4.90;;
35907;SDS011;22003;50.320;8.054;2024-02-21T03:58:57;12.02;;;4.75;;
35907;SDS011;22003;50.320;8.054;2024-02-21T04:01:23;17.02;;;6.00;;
35907;SDS011;22003;50.320;8.054;2024-02-21T04:03:48;18.48;;;6.47;;
35907;SDS011;22003;50.320;8.054;2024-02-21T04:06:13;22.88;;;5.88;;
35907;SDS011;22003;50.320;8.054;2024-02-21T04:08:39;17.35;;;5.47;;
35907;SDS011;22003;50.320;8.054;2024-02-21T04:11:04;17.15;;;5.90;;
35907;SDS011;22003;50.320;8.054;2024-02-21T04:13:29;17.63;;;6.43;;
35907;SDS011;22003;50.320;8.054;2024-02-21T04:15:54;14.20;;;5.47;;
35907;SDS011;22003;50.320;8.054;2024-02-21T04:18:20;14.52;;;5.72;;
35907;SDS011;22003;50.320;8.054;2024-02-21T04:20:45;20.67;;;6.78;;
35907;SDS011;22003;50.320;8.054;2024-02-21T04:23:10;16.83;;;5.43;;
35907;SDS011;22003;50.320;8.054;2024-02-21T04:25:36;15.50;;;5.38;;
35907;SDS011;22003;50.320;8.054;2024-02-21T04:28:01;16.00;;;6.15;;
35907;SDS011;22003;50.320;8.054;2024-02-21T04:30:27;13.30;;;5.07;;
35907;SDS011;22003;50.320;8.054;2024-02-21T04:32:53;10.68;;;4.68;;
35907;SDS011;22003;50.320;8.054;2024-02-21T04:35:18;13.70;;;4.70;;
35907;SDS011;22003;50.320;8.054;2024-02-21T04:37:43;12.27;;;4.57;;
35907;SDS011;22003;50.320;8.054;2024-02-21T04:40:09;20.77;;;5.78;;
35907;SDS011;22003;50.320;8.054;2024-02-21T04:42:35;14.98;;;4.65;;
35907;SDS011;22003;50.320;8.054;2024-02-21T04:45:00;12.85;;;4.85;;
35907;SDS011;22003;50.320;8.054;2024-02-21T04:47:26;17.70;;;5.78;;
35907;SDS011;22003;50.320;8.054;2024-02-21T04:49:51;11.20;;;4.13;;
35907;SDS011;22003;50.320;8.054;2024-02-21T04:52:17;16.15;;;5.35;;
35907;SDS011;22003;50.320;8.054;2024-02-21T04:54:42;10.60;;;4.30;;
35907;SDS011;22003;50.320;8.054;2024-02-21T04:57:07;11.27;;;4.60;;
35907;SDS011;22003;50.320;8.054;2024-02-21T05:02:00;14.32;;;4.40;;
35907;SDS011;22003;50.320;8.054;2024-02-21T05:04:26;12.20;;;4.55;;
35907;SDS011;22003;50.320;8.054;2024-02-21T05:06:51;18.58;;;5.40;;
35907;SDS011;22003;50.320;8.054;2024-02-21T05:09:16;12.40;;;5.32;;
35907;SDS011;22003;50.320;8.054;2024-02-21T05:11:41;12.13;;;4.93;;
35907;SDS011;22003;50.320;8.054;2024-02-21T05:14:07;15.48;;;4.80;;
35907;SDS011;22003;50.320;8.054;2024-02-21T05:16:32;18.25;;;5.32;;
35907;SDS011;22003;50.320;8.054;2024-02-21T05:18:57;14.38;;;4.43;;
35907;SDS011;22003;50.320;8.054;2024-02-21T05:21:23;15.40;;;5.05;;
35907;SDS011;22003;50.320;8.054;2024-02-21T05:23:49;19.88;;;5.25;;
35907;SDS011;22003;50.320;8.054;2024-02-21T05:26:24;11.80;;;4.47;;
35907;SDS011;22003;50.320;8.054;2024-02-21T05:28:50;13.73;;;4.60;;
35907;SDS011;22003;50.320;8.054;2024-02-21T05:31:15;15.55;;;4.63;;
35907;SDS011;22003;50.320;8.054;2024-02-21T05:33:41;14.25;;;5.05;;
35907;SDS011;22003;50.320;8.054;2024-02-21T05:36:07;14.52;;;4.82;;
35907;SDS011;22003;50.320;8.054;2024-02-21T05:38:33;14.82;;;5.05;;
35907;SDS011;22003;50.320;8.054;2024-02-21T05:40:58;19.02;;;5.30;;
35907;SDS011;22003;50.320;8.054;2024-02-21T05:43:23;17.25;;;5.00;;
35907;SDS011;22003;50.320;8.054;2024-02-21T05:45:49;10.40;;;4.53;;
35907;SDS011;22003;50.320;8.054;2024-02-21T05:48:14;10.60;;;4.68;;
35907;SDS011;22003;50.320;8.054;2024-02-21T05:50:39;13.98;;;4.22;;
35907;SDS011;22003;50.320;8.054;2024-02-21T05:53:04;11.50;;;4.30;;
35907;SDS011;22003;50.320;8.054;2024-02-21T05:55:30;11.48;;;4.80;;
35907;SDS011;22003;50.320;8.054;2024-02-21T05:57:55;12.70;;;4.00;;
35907;SDS011;22003;50.320;8.054;2024-02-21T06:00:21;12.80;;;4.40;;
35907;SDS011;22003;50.320;8.054;2024-02-21T06:02:46;11.25;;;4.28;;
35907;SDS011;22003;50.320;8.054;2024-02-21T06:05:11;11.05;;;4.70;;
35907;SDS011;22003;50.320;8.054;2024-02-21T06:07:37;16.35;;;5.15;;
35907;SDS011;22003;50.320;8.054;2024-02-21T06:10:03;12.02;;;4.40;;
35907;SDS011;22003;50.320;8.054;2024-02-21T06:12:29;13.25;;;5.07;;
35907;SDS011;22003;50.320;8.054;2024-02-21T06:14:54;13.55;;;4.88;;
35907;SDS011;22003;50.320;8.054;2024-02-21T06:17:19;14.75;;;4.82;;
35907;SDS011;22003;50.320;8.054;2024-02-21T06:19:44;13.75;;;4.80;;
35907;SDS011;22003;50.320;8.054;2024-02-21T06:22:10;15.52;;;6.70;;
35907;SDS011;22003;50.320;8.054;2024-02-21T06:24:36;12.38;;;5.03;;
35907;SDS011;22003;50.320;8.054;2024-02-21T06:27:01;18.38;;;4.90;;
35907;SDS011;22003;50.320;8.054;2024-02-21T06:29:32;17.50;;;4.45;;
35907;SDS011;22003;50.320;8.054;2024-02-21T06:31:58;19.55;;;5.68;;
35907;SDS011;22003;50.320;8.054;2024-02-21T06:34:24;21.35;;;4.90;;
35907;SDS011;22003;50.320;8.054;2024-02-21T06:36:49;16.85;;;5.00;;
35907;SDS011;22003;50.320;8.054;2024-02-21T06:39:15;13.38;;;4.43;;
35907;SDS011;22003;50.320;8.054;2024-02-21T06:41:40;12.48;;;4.88;;
35907;SDS011;22003;50.320;8.054;2024-02-21T06:44:06;19.65;;;6.03;;
35907;SDS011;22003;50.320;8.054;2024-02-21T06:46:31;13.65;;;4.93;;
35907;SDS011;22003;50.320;8.054;2024-02-21T06:48:58;11.55;;;4.72;;
35907;SDS011;22003;50.320;8.054;2024-02-21T06:51:25;17.40;;;4.67;;
35907;SDS011;22003;50.320;8.054;2024-02-21T06:53:50;14.73;;;4.10;;
35907;SDS011;22003;50.320;8.054;2024-02-21T06:56:15;15.23;;;4.93;;
35907;SDS011;22003;50.320;8.054;2024-02-21T06:58:41;18.48;;;7.40;;
35907;SDS011;22003;50.320;8.054;2024-02-21T07:01:06;19.70;;;4.75;;
35907;SDS011;22003;50.320;8.054;2024-02-21T07:03:32;14.40;;;4.45;;
35907;SDS011;22003;50.320;8.054;2024-02-21T07:05:57;14.32;;;3.95;;
35907;SDS011;22003;50.320;8.054;2024-02-21T07:08:23;20.85;;;4.68;;
35907;SDS011;22003;50.320;8.054;2024-02-21T07:10:48;18.55;;;4.65;;
35907;SDS011;22003;50.320;8.054;2024-02-21T07:13:13;15.38;;;4.63;;
35907;SDS011;22003;50.320;8.054;2024-02-21T07:15:40;12.90;;;4.50;;
35907;SDS011;22003;50.320;8.054;2024-02-21T07:18:06;16.65;;;5.65;;
35907;SDS011;22003;50.320;8.054;2024-02-21T07:20:31;11.05;;;4.50;;
35907;SDS011;22003;50.320;8.054;2024-02-21T07:22:58;11.05;;;4.38;;
35907;SDS011;22003;50.320;8.054;2024-02-21T07:25:23;14.02;;;4.80;;
35907;SDS011;22003;50.320;8.054;2024-02-21T07:27:49;12.55;;;4.38;;
35907;SDS011;22003;50.320;8.054;2024-02-21T07:30:14;18.85;;;5.55;;
35907;SDS011;22003;50.320;8.054;2024-02-21T07:32:39;17.60;;;4.03;;
35907;SDS011;22003;50.320;8.054;2024-02-21T07:35:04;12.35;;;4.65;;
35907;SDS011;22003;50.320;8.054;2024-02-21T07:37:30;14.07;;;4.90;;
35907;SDS011;22003;50.320;8.054;2024-02-21T07:39:56;17.02;;;4.75;;
35907;SDS011;22003;50.320;8.054;2024-02-21T07:42:21;17.42;;;4.72;;
35907;SDS011;22003;50.320;8.054;2024-02-21T07:44:46;18.77;;;4.95;;
35907;SDS011;22003;50.320;8.054;2024-02-21T07:47:11;11.52;;;4.10;;
35907;SDS011;22003;50.320;8.054;2024-02-21T07:49:43;14.57;;;5.57;;
35907;SDS011;22003;50.320;8.054;2024-02-21T07:52:09;13.38;;;4.60;;
35907;SDS011;22003;50.320;8.054;2024-02-21T07:54:35;12.73;;;4.60;;
35907;SDS011;22003;50.320;8.054;2024-02-21T07:57:00;14.40;;;4.38;;
35907;SDS011;22003;50.320;8.054;2024-02-21T07:59:25;13.30;;;4.32;;
35907;SDS011;22003;50.320;8.054;2024-02-21T08:01:51;12.52;;;4.75;;
35907;SDS011;22003;50.320;8.054;2024-02-21T08:04:16;17.45;;;4.38;;
35907;SDS011;22003;50.320;8.054;2024-02-21T08:06:41;14.60;;;4.10;;
35907;SDS011;22003;50.320;8.054;2024-02-21T08:09:06;16.10;;;4.70;;
35907;SDS011;22003;50.320;8.054;2024-02-21T08:11:32;12.05;;;4.35;;
35907;SDS011;22003;50.320;8.054;2024-02-21T08:13:57;15.23;;;4.43;;
35907;SDS011;22003;50.320;8.054;2024-02-21T08:16:23;12.98;;;4.03;;
35907;SDS011;22003;50.320;8.054;2024-02-21T08:18:48;13.23;;;4.82;;
35907;SDS011;22003;50.320;8.054;2024-02-21T08:21:13;13.77;;;4.63;;
35907;SDS011;22003;50.320;8.054;2024-02-21T08:23:38;12.57;;;4.55;;
35907;SDS011;22003;50.320;8.054;2024-02-21T08:26:04;14.90;;;4.00;;
35907;SDS011;22003;50.320;8.054;2024-02-21T08:28:30;13.57;;;4.55;;
35907;SDS011;22003;50.320;8.054;2024-02-21T08:30:55;13.30;;;3.92;;
35907;SDS011;22003;50.320;8.054;2024-02-21T08:33:20;10.88;;;4.13;;
35907;SDS011;22003;50.320;8.054;2024-02-21T08:35:50;13.73;;;4.47;;
35907;SDS011;22003;50.320;8.054;2024-02-21T08:38:15;12.45;;;5.00;;
35907;SDS011;22003;50.320;8.054;2024-02-21T08:40:41;14.15;;;4.65;;
35907;SDS011;22003;50.320;8.054;2024-02-21T08:43:06;12.00;;;4.30;;
35907;SDS011;22003;50.320;8.054;2024-02-21T08:45:31;7.07;;;3.20;;
35907;SDS011;22003;50.320;8.054;2024-02-21T08:47:56;14.48;;;5.20;;
35907;SDS011;22003;50.320;8.054;2024-02-21T08:50:22;12.63;;;4.25;;
35907;SDS011;22003;50.320;8.054;2024-02-21T08:52:47;12.55;;;4.05;;
35907;SDS011;22003;50.320;8.054;2024-02-21T08:55:12;12.88;;;3.92;;
35907;SDS011;22003;50.320;8.054;2024-02-21T08:57:37;12.93;;;4.43;;
35907;SDS011;22003;50.320;8.054;2024-02-21T09:00:04;11.25;;;3.75;;
35907;SDS011;22003;50.320;8.054;2024-02-21T09:02:39;16.02;;;4.43;;
35907;SDS011;22003;50.320;8.054;2024-02-21T09:05:06;11.57;;;4.13;;
35907;SDS011;22003;50.320;8.054;2024-02-21T09:07:31;11.20;;;3.70;;
35907;SDS011;22003;50.320;8.054;2024-02-21T09:09:57;9.65;;;4.10;;
35907;SDS011;22003;50.320;8.054;2024-02-21T09:12:22;10.70;;;4.20;;
35907;SDS011;22003;50.320;8.054;2024-02-21T09:14:47;12.50;;;4.20;;
35907;SDS011;22003;50.320;8.054;2024-02-21T09:19:42;10.77;;;4.50;;
35907;SDS011;22003;50.320;8.054;2024-02-21T09:22:07;14.73;;;4.03;;
35907;SDS011;22003;50.320;8.054;2024-02-21T09:24:32;10.13;;;4.00;;
35907;SDS011;22003;50.320;8.054;2024-02-21T09:26:58;13.75;;;4.80;;
35907;SDS011;22003;50.320;8.054;2024-02-21T09:29:23;13.32;;;4.93;;
35907;SDS011;22003;50.320;8.054;2024-02-21T09:31:48;12.18;;;3.30;;
35907;SDS011;22003;50.320;8.054;2024-02-21T09:34:13;9.48;;;4.28;;
35907;SDS011;22003;50.320;8.054;2024-02-21T09:36:39;13.02;;;4.13;;
35907;SDS011;22003;50.320;8.054;2024-02-21T09:39:05;12.77;;;4.70;;
35907;SDS011;22003;50.320;8.054;2024-02-21T09:41:30;11.20;;;3.60;;
35907;SDS011;22003;50.320;8.054;2024-02-21T09:43:57;11.30;;;3.97;;
35907;SDS011;22003;50.320;8.054;2024-02-21T09:46:57;18.17;;;5.60;;
35907;SDS011;22003;50.320;8.054;2024-02-21T09:49:30;11.32;;;3.58;;
35907;SDS011;22003;50.320;8.054;2024-02-21T09:52:04;11.57;;;4.50;;
35907;SDS011;22003;50.320;8.054;2024-02-21T09:54:32;11.50;;;3.42;;
35907;SDS011;22003;50.320;8.054;2024-02-21T09:56:58;17.13;;;4.50;;
35907;SDS011;22003;50.320;8.054;2024-02-21T09:59:24;10.40;;;3.83;;
35907;SDS011;22003;50.320;8.054;2024-02-21T10:04:17;8.65;;;3.08;;
35907;SDS011;22003;50.320;8.054;2024-02-21T10:06:44;15.48;;;3.95;;
35907;SDS011;22003;50.320;8.054;2024-02-21T10:09:19;15.00;;;4.30;;
35907;SDS011;22003;50.320;8.054;2024-02-21T10:11:45;21.90;;;4.63;;
35907;SDS011;22003;50.320;8.054;2024-02-21T10:14:10;6.53;;;3.33;;
35907;SDS011;22003;50.320;8.054;2024-02-21T10:16:35;15.30;;;5.68;;
35907;SDS011;22003;50.320;8.054;2024-02-21T10:19:02;10.38;;;3.25;;
35907;SDS011;22003;50.320;8.054;2024-02-21T10:21:28;11.32;;;3.97;;
35907;SDS011;22003;50.320;8.054;2024-02-21T10:23:54;11.68;;;3.47;;
35907;SDS011;22003;50.320;8.054;2024-02-21T10:26:20;9.60;;;3.20;;
35907;SDS011;22003;50.320;8.054;2024-02-21T10:28:46;16.17;;;3.40;;
35907;SDS011;22003;50.320;8.054;2024-02-21T10:31:26;14.50;;;3.63;;
35907;SDS011;22003;50.320;8.054;2024-02-21T10:33:59;7.55;;;3.00;;
35907;SDS011;22003;50.320;8.054;2024-02-21T10:36:27;10.00;;;2.95;;
35907;SDS011;22003;50.320;8.054;2024-02-21T10:38:53;11.18;;;2.97;;
35907;SDS011;22003;50.320;8.054;2024-02-21T10:41:19;14.30;;;3.60;;
35907;SDS011;22003;50.320;8.054;2024-02-21T10:43:50;13.95;;;4.00;;
35907;SDS011;22003;50.320;8.054;2024-02-21T10:46:18;9.80;;;3.10;;
35907;SDS011;22003;50.320;8.054;2024-02-21T10:48:45;11.10;;;3.33;;
35907;SDS011;22003;50.320;8.054;2024-02-21T10:51:19;7.15;;;3.15;;
35907;SDS011;22003;50.320;8.054;2024-02-21T10:54:30;16.70;;;3.17;;
35907;SDS011;22003;50.320;8.054;2024-02-21T10:56:54;13.32;;;3.10;;
35907;SDS011;22003;50.320;8.054;2024-02-21T10:59:21;9.35;;;2.80;;
35907;SDS011;22003;50.320;8.054;2024-02-21T11:01:48;8.07;;;2.70;;
35907;SDS011;22003;50.320;8.054;2024-02-21T11:04:13;9.48;;;2.83;;
35907;SDS011;22003;50.320;8.054;2024-02-21T11:06:39;8.25;;;3.15;;
35907;SDS011;22003;50.320;8.054;2024-02-21T11:09:06;13.07;;;3.60;;
35907;SDS011;22003;50.320;8.054;2024-02-21T11:12:06;7.03;;;2.40;;
35907;SDS011;22003;50.320;8.054;2024-02-21T11:14:28;9.32;;;3.03;;
35907;SDS011;22003;50.320;8.054;2024-02-21T11:16:57;8.63;;;3.00;;
35907;SDS011;22003;50.320;8.054;2024-02-21T11:19:24;8.00;;;2.90;;
35907;SDS011;22003;50.320;8.054;2024-02-21T11:21:51;10.88;;;3.05;;
35907;SDS011;22003;50.320;8.054;2024-02-21T11:24:31;11.27;;;3.58;;
35907;SDS011;22003;50.320;8.054;2024-02-21T11:27:11;10.80;;;2.58;;
35907;SDS011;22003;50.320;8.054;2024-02-21T11:29:44;9.73;;;2.58;;
35907;SDS011;22003;50.320;8.054;2024-02-21T11:32:16;6.60;;;2.50;;
35907;SDS011;22003;50.320;8.054;2024-02-21T11:34:59;7.85;;;2.58;;
35907;SDS011;22003;50.320;8.054;2024-02-21T11:37:30;9.50;;;2.67;;
35907;SDS011;22003;50.320;8.054;2024-02-21T11:39:58;9.32;;;2.53;;
35907;SDS011;22003;50.320;8.054;2024-02-21T11:42:27;7.43;;;2.70;;
35907;SDS011;22003;50.320;8.054;2024-02-21T11:44:53;12.45;;;3.85;;
35907;SDS011;22003;50.320;8.054;2024-02-21T11:47:21;12.15;;;2.53;;
35907;SDS011;22003;50.320;8.054;2024-02-21T11:49:47;9.40;;;2.38;;
35907;SDS011;22003;50.320;8.054;2024-02-21T11:54:40;5.13;;;2.25;;
35907;SDS011;22003;50.320;8.054;2024-02-21T11:57:06;5.43;;;2.15;;
35907;SDS011;22003;50.320;8.054;2024-02-21T11:59:31;5.20;;;1.80;;
35907;SDS011;22003;50.320;8.054;2024-02-21T12:01:58;12.55;;;2.67;;
35907;SDS011;22003;50.320;8.054;2024-02-21T12:04:24;8.50;;;2.30;;
35907;SDS011;22003;50.320;8.054;2024-02-21T12:06:50;8.18;;;2.53;;
35907;SDS011;22003;50.320;8.054;2024-02-21T12:09:17;6.43;;;1.90;;
35907;SDS011;22003;50.320;8.054;2024-02-21T12:11:43;7.80;;;2.00;;
35907;SDS011;22003;50.320;8.054;2024-02-21T12:14:09;10.77;;;2.42;;
35907;SDS011;22003;50.320;8.054;2024-02-21T12:16:34;5.80;;;1.63;;
35907;SDS011;22003;50.320;8.054;2024-02-21T12:19:01;6.22;;;2.60;;
35907;SDS011;22003;50.320;8.054;2024-02-21T12:21:31;6.07;;;2.20;;
35907;SDS011;22003;50.320;8.054;2024-02-21T12:23:59;9.05;;;2.15;;
35907;SDS011;22003;50.320;8.054;2024-02-21T12:26:25;10.57;;;2.25;;
35907;SDS011;22003;50.320;8.054;2024-02-21T12:28:51;4.25;;;2.08;;
35907;SDS011;22003;50.320;8.054;2024-02-21T12:31:18;11.80;;;2.40;;
35907;SDS011;22003;50.320;8.054;2024-02-21T12:33:43;7.40;;;2.33;;
35907;SDS011;22003;50.320;8.054;2024-02-21T12:36:08;6.13;;;2.42;;
35907;SDS011;22003;50.320;8.054;2024-02-21T12:38:34;8.27;;;2.28;;
35907;SDS011;22003;50.320;8.054;2024-02-21T12:41:00;5.18;;;2.28;;
35907;SDS011;22003;50.320;8.054;2024-02-21T12:43:26;6.45;;;2.15;;
35907;SDS011;22003;50.320;8.054;2024-02-21T12:45:51;6.65;;;2.13;;
35907;SDS011;22003;50.320;8.054;2024-02-21T12:48:17;7.00;;;2.25;;
35907;SDS011;22003;50.320;8.054;2024-02-21T12:50:48;10.65;;;2.90;;
35907;SDS011;22003;50.320;8.054;2024-02-21T12:53:20;10.95;;;3.78;;
35907;SDS011;22003;50.320;8.054;2024-02-21T12:55:49;9.07;;;2.30;;
35907;SDS011;22003;50.320;8.054;2024-02-21T12:58:14;7.93;;;2.88;;
35907;SDS011;22003;50.320;8.054;2024-02-21T13:00:40;4.57;;;2.08;;
35907;SDS011;22003;50.320;8.054;2024-02-21T13:03:05;9.70;;;2.42;;
35907;SDS011;22003;50.320;8.054;2024-02-21T13:05:31;10.93;;;2.25;;
35907;SDS011;22003;50.320;8.054;2024-02-21T13:07:57;6.43;;;2.10;;
35907;SDS011;22003;50.320;8.054;2024-02-21T13:10:23;6.90;;;2.55;;
35907;SDS011;22003;50.320;8.054;2024-02-21T13:12:48;7.90;;;2.78;;
35907;SDS011;22003;50.320;8.054;2024-02-21T13:15:13;6.63;;;2.20;;
35907;SDS011;22003;50.320;8.054;2024-02-21T13:17:41;5.90;;;2.75;;
35907;SDS011;22003;50.320;8.054;2024-02-21T13:20:06;10.57;;;4.10;;
35907;SDS011;22003;50.320;8.054;2024-02-21T13:22:33;8.13;;;3.17;;
35907;SDS011;22003;50.320;8.054;2024-02-21T13:24:58;9.93;;;3.67;;
35907;SDS011;22003;50.320;8.054;2024-02-21T13:27:24;7.32;;;3.00;;
35907;SDS011;22003;50.320;8.054;2024-02-21T13:29:49;12.10;;;3.47;;
35907;SDS011;22003;50.320;8.054;2024-02-21T13:32:14;13.20;;;3.75;;
35907;SDS011;22003;50.320;8.054;2024-02-21T13:34:40;11.13;;;3.50;;
35907;SDS011;22003;50.320;8.054;2024-02-21T13:37:07;11.32;;;3.92;;
35907;SDS011;22003;50.320;8.054;2024-02-21T13:39:34;10.68;;;3.65;;
35907;SDS011;22003;50.320;8.054;2024-02-21T13:42:00;9.02;;;3.95;;
35907;SDS011;22003;50.320;8.054;2024-02-21T13:44:25;7.35;;;4.00;;
35907;SDS011;22003;50.320;8.054;2024-02-21T13:46:50;10.10;;;4.20;;
35907;SDS011;22003;50.320;8.054;2024-02-21T13:49:15;11.63;;;4.10;;
35907;SDS011;22003;50.320;8.054;2024-02-21T13:51:41;7.75;;;4.10;;
35907;SDS011;22003;50.320;8.054;2024-02-21T13:54:07;11.68;;;4.70;;
35907;SDS011;22003;50.320;8.054;2024-02-21T13:56:34;9.45;;;3.80;;
35907;SDS011;22003;50.320;8.054;2024-02-21T13:58:59;8.48;;;4.10;;
35907;SDS011;22003;50.320;8.054;2024-02-21T14:01:25;11.55;;;4.65;;
35907;SDS011;22003;50.320;8.054;2024-02-21T14:03:52;11.82;;;4.55;;
35907;SDS011;22003;50.320;8.054;2024-02-21T14:06:18;10.00;;;4.38;;
35907;SDS011;22003;50.320;8.054;2024-02-21T14:08:43;8.93;;;4.20;;
35907;SDS011;22003;50.320;8.054;2024-02-21T14:11:08;15.23;;;4.10;;
35907;SDS011;22003;50.320;8.054;2024-02-21T14:13:34;17.27;;;4.25;;
35907;SDS011;22003;50.320;8.054;2024-02-21T14:16:00;12.20;;;4.20;;
35907;SDS011;22003;50.320;8.054;2024-02-21T14:18:25;12.50;;;4.05;;
35907;SDS011;22003;50.320;8.054;2024-02-21T14:20:50;6.95;;;3.55;;
35907;SDS011;22003;50.320;8.054;2024-02-21T14:23:15;14.13;;;4.43;;
35907;SDS011;22003;50.320;8.054;2024-02-21T14:25:41;10.02;;;3.60;;
35907;SDS011;22003;50.320;8.054;2024-02-21T14:28:07;11.93;;;4.00;;
35907;SDS011;22003;50.320;8.054;2024-02-21T14:30:34;8.07;;;3.38;;
35907;SDS011;22003;50.320;8.054;2024-02-21T14:32:59;10.27;;;3.60;;
35907;SDS011;22003;50.320;8.054;2024-02-21T14:35:24;13.82;;;3.47;;
35907;SDS011;22003;50.320;8.054;2024-02-21T14:37:50;12.57;;;4.50;;
35907;SDS011;22003;50.320;8.054;2024-02-21T14:40:17;16.05;;;3.40;;
35907;SDS011;22003;50.320;8.054;2024-02-21T14:42:44;10.13;;;3.70;;